Campbell River Airport
CYBL : now visible

Airfield :











YOU CAN JOIN US ON...

 
LOGIN :

Register | Disclaimer

   EN    FR    IT 

 









Legend :    VFR   Marginal VFR   IFR   Intensive IFR   Very Intensive IFR
Visi :
Ceiling :
>= 8 km
>= 3000ft
5 to 8 km
1000 to 3000 ft
1500m to 5 km
500 to 1000 ft
800 to 1500m
200 to 500 ft
< 800m
< 200 ft
Symbols :   Thunderstorms  Fog  Heavy snow  Heavy precipitations  Wind > 20 kt






- Airport Elevation : 346 ft
- IATA code : YBL


CYBL - Campbell River

CURRENT METAR :
  • 282000Z 09005KT 050V150 30SM FEW080 FEW250 23/06 A3005 RMK AC1CI1 AC TR CI TR SLP177 DENSITY ALT 1200FT

EXPIRED METARs :
  • 281900Z 06006KT 050V120 30SM FEW100 FEW250 22/07 A3006 RMK AC1CI1 AC TR CI TR SLP182 DENSITY ALT 1100FT
  • 281800Z 08002KT 30SM FEW100 FEW250 21/08 A3006 RMK AC1CI1 AC TR CI TR SLP182 DENSITY ALT 1000FT

TAF TAF CYBL
Valid from the 28 at 19:00 until the 29 at 04:00 UTC


281849Z 2819/2904 VRB03KT P6SM SCT100 RMK NXT FCST BY 290100Z
CZVR FIR / North America



MET'MAP, your aeronautical weather chart ! - Copyright ORBIFLY December 2007 - Disclaimer

ORBIFLY MET'MAP TEAM :

Programming & Development : Alexandra Zaïnal
Concept & original design : Baudouin d'Aumeries
Assistance for programming : Marc-Olivier Méhu
Technical & hardware support : Manuel Goepfert

Contact : metmap@orbifly.com




SOURCES & CREDITS :

   NOAA       Earth
Advisory